createdAt,value
2018-10-21T05:06:02.000Z,5.83
2018-10-21T05:07:01.932Z,5.88
2018-10-21T05:08:55.878Z,5.95
2018-10-21T05:09:55.650Z,5.95
2018-10-21T05:11:48.776Z,6.00
2018-10-21T05:12:48.458Z,6.00
2018-10-21T05:14:41.335Z,6.06
2018-10-21T05:15:41.311Z,5.96
2018-10-21T05:17:34.201Z,5.92
2018-10-21T05:18:34.166Z,5.93
2018-10-21T05:20:27.059Z,5.91
2018-10-21T05:21:27.047Z,5.98
2018-10-21T05:23:19.959Z,6.00
2018-10-21T05:24:19.893Z,5.96
2018-10-21T05:26:12.816Z,5.98
2018-10-21T05:27:12.805Z,5.96
2018-10-21T05:29:06.341Z,5.92
2018-10-21T05:30:06.224Z,5.92
2018-10-21T05:31:59.071Z,5.92
2018-10-21T05:32:59.038Z,5.92
2018-10-21T05:34:53.814Z,6.00
2018-10-21T05:35:51.915Z,6.04
2018-10-21T05:36:51.913Z,6.10
2018-10-21T05:37:51.936Z,6.13
2018-10-21T05:38:52.128Z,6.22
2018-10-21T05:39:51.870Z,6.26
2018-10-21T05:40:51.869Z,6.30
2018-10-21T05:41:51.860Z,6.35
2018-10-21T05:42:51.854Z,6.40
2018-10-21T05:43:51.856Z,6.38
2018-10-21T05:44:51.844Z,6.41
2018-10-21T05:45:51.839Z,6.41
2018-10-21T05:46:51.916Z,6.36
2018-10-21T05:47:51.831Z,6.38
2018-10-21T05:48:59.269Z,6.36
2018-10-21T05:50:44.723Z,6.47
2018-10-21T05:51:44.703Z,6.47
2018-10-21T05:53:37.776Z,6.50
2018-10-21T05:54:37.577Z,6.47
2018-10-21T05:56:30.888Z,6.50
2018-10-21T05:57:30.542Z,6.48
2018-10-21T05:59:23.330Z,6.44
2018-10-21T06:00:23.326Z,6.51
2018-10-21T06:02:17.269Z,6.48
2018-10-21T06:03:17.217Z,6.50
2018-10-21T06:05:10.852Z,6.50
2018-10-21T06:06:10.616Z,6.36
2018-10-21T06:08:04.505Z,6.35
2018-10-21T06:09:03.484Z,6.35
2018-10-21T06:10:56.907Z,6.36
2018-10-21T06:11:56.881Z,6.35
2018-10-21T06:13:49.838Z,6.50
2018-10-21T06:14:49.747Z,6.51
2018-10-21T06:16:42.632Z,6.58
2018-10-21T06:17:42.616Z,6.65
2018-10-21T06:19:35.803Z,6.66
2018-10-21T06:20:35.777Z,6.71
2018-10-21T06:22:28.675Z,6.80
2018-10-21T06:23:28.652Z,6.79
2018-10-21T06:25:29.109Z,6.84
2018-10-21T06:26:21.753Z,6.83
2018-10-21T06:28:14.685Z,6.81
2018-10-21T06:29:14.620Z,6.84
2018-10-21T06:31:08.406Z,6.95
2018-10-21T06:32:08.197Z,6.95
2018-10-21T06:34:00.973Z,7.04
2018-10-21T06:35:00.976Z,7.01
2018-10-21T06:36:53.876Z,7.15
2018-10-21T06:37:53.764Z,7.15
2018-10-21T06:39:46.803Z,7.13
2018-10-21T06:40:46.701Z,7.16
2018-10-21T06:41:46.628Z,7.16
2018-10-21T06:42:46.631Z,7.19
2018-10-21T06:43:46.652Z,7.26
2018-10-21T06:44:46.637Z,7.31
2018-10-21T06:45:46.764Z,7.27
2018-10-21T06:46:46.668Z,7.26
2018-10-21T06:47:46.636Z,7.17
2018-10-21T06:48:46.666Z,7.23
2018-10-21T06:49:46.595Z,7.27
2018-10-21T06:50:46.592Z,7.20
2018-10-21T06:51:46.588Z,7.31
2018-10-21T06:52:46.584Z,7.29
2018-10-21T06:53:46.580Z,7.40
2018-10-21T06:54:46.590Z,7.35
2018-10-21T06:55:46.584Z,7.37
2018-10-21T06:56:46.720Z,7.44
2018-10-21T06:57:46.680Z,7.37
2018-10-21T06:58:46.562Z,7.47
2018-10-21T06:59:46.576Z,7.55
2018-10-21T07:00:46.556Z,7.53
2018-10-21T07:01:53.838Z,7.74
2018-10-21T07:03:40.127Z,7.72
2018-10-21T07:04:39.765Z,7.81
2018-10-21T07:05:39.670Z,7.85
2018-10-21T07:06:39.603Z,7.99
2018-10-21T07:07:39.486Z,7.99
2018-10-21T07:08:39.491Z,8.02
2018-10-21T07:09:39.480Z,8.11
2018-10-21T07:10:39.479Z,8.17
2018-10-21T07:11:39.471Z,8.20
2018-10-21T07:12:39.471Z,8.26
2018-10-21T07:13:39.469Z,8.33
2018-10-21T07:14:39.464Z,8.40
2018-10-21T07:15:39.522Z,8.45
2018-10-21T07:16:46.936Z,8.51
2018-10-21T07:18:33.928Z,8.51
2018-10-21T07:19:33.093Z,8.65
2018-10-21T07:21:25.829Z,8.76
2018-10-21T07:22:25.778Z,8.72
2018-10-21T07:24:18.899Z,8.68
2018-10-21T07:25:18.818Z,8.87
2018-10-21T07:27:11.721Z,8.90
2018-10-21T07:28:11.813Z,8.91
2018-10-21T07:30:04.576Z,9.04
2018-10-21T07:31:04.566Z,8.97
2018-10-21T07:32:58.118Z,9.04
2018-10-21T07:33:58.077Z,9.13
2018-10-21T07:35:51.447Z,9.18
2018-10-21T07:36:51.611Z,9.23
2018-10-21T07:38:44.403Z,9.43
2018-10-21T07:39:45.163Z,9.46
2018-10-21T07:41:39.269Z,9.56
2018-10-21T07:42:38.333Z,9.56
2018-10-21T07:44:31.188Z,9.53
2018-10-21T07:45:31.440Z,9.73
2018-10-21T07:47:24.116Z,9.82
2018-10-21T07:48:24.092Z,9.89
2018-10-21T07:50:16.911Z,9.99
2018-10-21T07:51:16.903Z,9.94
2018-10-21T07:53:09.777Z,10.07
2018-10-21T07:54:09.761Z,10.07
2018-10-21T07:56:02.671Z,10.17
2018-10-21T07:57:02.649Z,10.25
2018-10-21T07:58:55.521Z,10.15
2018-10-21T07:59:55.478Z,10.21
2018-10-21T08:01:48.913Z,10.12
2018-10-21T08:02:48.874Z,10.28
2018-10-21T08:04:41.758Z,10.52
2018-10-21T08:05:41.765Z,10.55
2018-10-21T08:07:34.857Z,10.60
2018-10-21T08:08:34.985Z,10.66
2018-10-21T08:10:27.730Z,10.55
2018-10-21T08:11:27.686Z,10.55
2018-10-21T08:13:20.616Z,10.56
2018-10-21T08:14:20.628Z,10.59
2018-10-21T08:16:14.751Z,10.76
2018-10-21T08:17:14.437Z,10.76
2018-10-21T08:19:07.351Z,10.76
2018-10-21T08:20:07.369Z,10.71
2018-10-21T08:22:00.419Z,10.71
2018-10-21T08:23:00.319Z,10.71
2018-10-21T08:24:53.644Z,10.60
2018-10-21T08:25:53.583Z,10.74
2018-10-21T08:27:47.074Z,10.78
2018-10-21T08:28:47.060Z,10.88
2018-10-21T08:30:40.443Z,10.89
2018-10-21T08:31:40.423Z,10.91
2018-10-21T08:33:33.817Z,10.94
2018-10-21T08:34:33.840Z,10.91
2018-10-21T08:36:27.338Z,10.99
2018-10-21T08:37:27.265Z,10.89
2018-10-21T08:39:20.273Z,10.96
2018-10-21T08:40:20.141Z,10.99
2018-10-21T08:42:13.461Z,10.89
2018-10-21T08:43:13.208Z,11.07
2018-10-21T08:45:06.155Z,11.09
2018-10-21T08:46:06.099Z,11.09
2018-10-21T08:47:59.276Z,11.17
2018-10-21T08:48:58.955Z,11.17
2018-10-21T08:50:51.836Z,11.28
2018-10-21T08:51:51.848Z,11.32
2018-10-21T08:53:45.747Z,11.32
2018-10-21T08:54:45.695Z,11.35
2018-10-21T08:56:39.309Z,11.43
2018-10-21T08:57:39.100Z,11.47
2018-10-21T08:59:32.039Z,11.54
2018-10-21T09:00:32.023Z,11.56
2018-10-21T09:02:24.903Z,11.68
2018-10-21T09:03:24.864Z,11.74
2018-10-21T09:05:17.840Z,11.99
2018-10-21T09:06:17.737Z,12.13
2018-10-21T09:08:10.669Z,12.13
2018-10-21T09:09:10.621Z,12.23
2018-10-21T09:11:03.644Z,12.20
2018-10-21T09:12:03.515Z,12.08
2018-10-21T09:13:56.418Z,12.26
2018-10-21T09:14:56.808Z,12.19
2018-10-21T09:16:49.931Z,12.26
2018-10-21T09:17:50.581Z,12.31
2018-10-21T09:19:43.392Z,12.38
2018-10-21T09:20:43.278Z,12.44
2018-10-21T09:22:36.767Z,12.49
2018-10-21T09:23:36.767Z,12.33
2018-10-21T09:25:29.676Z,12.49
2018-10-21T09:26:29.658Z,12.60
2018-10-21T09:28:23.034Z,13.02
2018-10-21T09:29:22.720Z,13.40
2018-10-21T09:31:16.578Z,13.76
2018-10-21T09:32:16.123Z,13.63
2018-10-21T09:34:09.111Z,14.09
2018-10-21T09:35:09.063Z,14.50
2018-10-21T09:37:02.239Z,14.39
2018-10-21T09:38:01.933Z,14.25
2018-10-21T09:39:54.894Z,14.10
2018-10-21T09:40:54.809Z,14.02
2018-10-21T09:42:48.272Z,13.98
2018-10-21T09:43:48.253Z,13.99
2018-10-21T09:45:42.463Z,13.87
2018-10-21T09:46:42.281Z,14.04
2018-10-21T09:48:35.444Z,14.50
2018-10-21T09:49:35.197Z,14.61
2018-10-21T09:51:28.908Z,14.86
2018-10-21T09:52:28.607Z,14.98
2018-10-21T09:54:22.045Z,15.03
2018-10-21T09:55:22.067Z,15.38
2018-10-21T09:57:15.121Z,15.67
2018-10-21T09:58:14.997Z,15.82
2018-10-21T09:59:14.924Z,15.78
2018-10-21T10:00:14.932Z,15.82
2018-10-21T10:01:15.012Z,15.94
2018-10-21T10:02:14.952Z,16.01
2018-10-21T10:03:14.965Z,16.07
2018-10-21T10:04:15.016Z,16.25
2018-10-21T10:05:15.023Z,16.22
2018-10-21T10:06:14.960Z,15.92
2018-10-21T10:07:15.182Z,16.27
2018-10-21T10:08:14.987Z,16.20
2018-10-21T10:09:14.981Z,16.67
2018-10-21T10:10:15.106Z,16.62
2018-10-21T10:11:14.995Z,16.67
2018-10-21T10:12:15.003Z,16.89
2018-10-21T10:13:15.064Z,16.96
2018-10-21T10:14:15.014Z,16.89
2018-10-21T10:15:15.023Z,16.96
2018-10-21T10:17:08.594Z,16.65
2018-10-21T10:18:08.570Z,16.38
2018-10-21T10:20:01.455Z,16.18
2018-10-21T10:21:01.467Z,15.84
2018-10-21T10:22:55.325Z,15.94
2018-10-21T10:23:55.395Z,15.78
2018-10-21T10:25:48.252Z,15.89
2018-10-21T10:26:48.195Z,16.00
2018-10-21T10:28:41.652Z,16.04
2018-10-21T10:29:41.652Z,16.09
2018-10-21T10:31:35.140Z,15.86
2018-10-21T10:32:35.093Z,15.96
2018-10-21T10:34:28.840Z,15.97
2018-10-21T10:35:28.523Z,15.92
2018-10-21T10:37:22.697Z,15.82
2018-10-21T10:38:22.608Z,15.79
2018-10-21T10:40:15.679Z,16.18
2018-10-21T10:41:15.591Z,16.30
2018-10-21T10:43:09.494Z,16.73
2018-10-21T10:44:09.249Z,16.49
2018-10-21T10:46:02.308Z,16.60
2018-10-21T10:47:02.160Z,16.59
2018-10-21T10:48:55.262Z,16.14
2018-10-21T10:49:55.245Z,15.96
2018-10-21T10:51:48.231Z,15.11
2018-10-21T10:52:48.181Z,15.01
2018-10-21T10:54:41.571Z,14.81
2018-10-21T10:55:41.613Z,14.80
2018-10-21T10:56:41.609Z,14.81
2018-10-21T10:57:41.633Z,14.74
2018-10-21T10:58:41.595Z,14.86
2018-10-21T10:59:41.728Z,14.88
2018-10-21T11:00:41.700Z,14.99
2018-10-21T11:01:41.576Z,15.02
2018-10-21T11:02:41.579Z,15.19
2018-10-21T11:03:41.584Z,15.09
2018-10-21T11:04:41.585Z,15.17
2018-10-21T11:05:41.596Z,15.20
2018-10-21T11:06:41.601Z,15.05
2018-10-21T11:07:41.595Z,15.05
2018-10-21T11:08:41.606Z,15.03
2018-10-21T11:09:41.612Z,15.05
2018-10-21T11:10:41.617Z,15.19
2018-10-21T11:11:41.633Z,15.19
2018-10-21T11:12:49.069Z,15.20
2018-10-21T11:14:35.483Z,15.12
2018-10-21T11:15:35.408Z,15.05
2018-10-21T11:17:28.804Z,15.05
2018-10-21T11:18:28.998Z,15.05
2018-10-21T11:20:21.956Z,14.86
2018-10-21T11:21:21.670Z,14.74
2018-10-21T11:23:14.604Z,14.75
2018-10-21T11:24:14.699Z,14.81
2018-10-21T11:26:07.622Z,14.69
2018-10-21T11:27:07.452Z,14.80
2018-10-21T11:28:07.470Z,14.80
2018-10-21T11:29:07.469Z,14.68
2018-10-21T11:30:07.451Z,14.61
2018-10-21T11:31:07.652Z,14.53
2018-10-21T11:32:07.463Z,14.61
2018-10-21T11:33:07.599Z,14.43
2018-10-21T11:34:07.529Z,14.34
2018-10-21T11:35:07.440Z,14.34
2018-10-21T11:36:07.449Z,14.37
2018-10-21T11:37:07.653Z,14.27
2018-10-21T11:38:07.534Z,14.28
2018-10-21T11:39:07.459Z,14.32
2018-10-21T11:40:07.583Z,14.27
2018-10-21T11:41:07.452Z,14.24
2018-10-21T11:42:07.632Z,14.25
2018-10-21T11:43:07.525Z,14.20
2018-10-21T11:44:07.683Z,14.19
2018-10-21T11:45:07.481Z,14.29
2018-10-21T11:46:08.053Z,14.31
2018-10-21T11:47:07.513Z,14.38
2018-10-21T11:48:07.466Z,14.35
2018-10-21T11:49:07.480Z,14.49
2018-10-21T11:50:14.771Z,14.44
2018-10-21T11:52:00.640Z,14.42
2018-10-21T11:53:00.595Z,14.60
2018-10-21T11:54:53.713Z,14.88
2018-10-21T11:55:53.502Z,15.09
2018-10-21T11:57:58.147Z,15.52
2018-10-21T11:58:58.183Z,15.78
2018-10-21T12:00:51.297Z,15.70
2018-10-21T12:01:50.973Z,15.79
2018-10-21T12:03:46.005Z,15.64
2018-10-21T12:04:45.890Z,15.60
2018-10-21T12:06:39.121Z,15.70
2018-10-21T12:07:39.385Z,15.56
2018-10-21T12:09:32.395Z,15.49
2018-10-21T12:10:32.262Z,15.52
2018-10-21T12:12:25.131Z,15.68
2018-10-21T12:13:25.119Z,15.75
2018-10-21T12:15:18.574Z,15.75
2018-10-21T12:16:18.667Z,15.66
2018-10-21T12:18:11.491Z,15.49
2018-10-21T12:19:11.561Z,15.52
2018-10-21T12:21:05.178Z,15.74
2018-10-21T12:22:04.912Z,15.72
2018-10-21T12:23:57.777Z,15.78
2018-10-21T12:24:57.764Z,15.68
2018-10-21T12:25:57.962Z,15.63
2018-10-21T12:26:57.740Z,15.38
2018-10-21T12:27:57.748Z,15.05
2018-10-21T12:28:57.743Z,15.02
2018-10-21T12:29:57.767Z,14.99
2018-10-21T12:30:57.765Z,14.83
2018-10-21T12:31:57.744Z,14.83
2018-10-21T12:32:57.752Z,14.81
2018-10-21T12:33:57.771Z,14.81
2018-10-21T12:34:57.800Z,14.80
2018-10-21T12:35:57.757Z,14.86
2018-10-21T12:36:57.806Z,14.74
2018-10-21T12:37:57.755Z,14.80
2018-10-21T12:38:57.759Z,14.74
2018-10-21T12:39:57.770Z,14.60
2018-10-21T12:40:57.801Z,14.54
2018-10-21T12:41:57.761Z,14.44
2018-10-21T12:42:57.773Z,14.34
2018-10-21T12:43:57.767Z,14.38
2018-10-21T12:44:57.772Z,14.31
2018-10-21T12:45:57.813Z,14.25
2018-10-21T12:46:57.775Z,14.14
2018-10-21T12:47:57.772Z,14.19
2018-10-21T12:48:57.802Z,14.13
2018-10-21T12:49:57.779Z,14.20
2018-10-21T12:50:57.841Z,14.14
2018-10-21T12:51:57.816Z,14.09
2018-10-21T12:52:57.789Z,14.17
2018-10-21T12:53:57.806Z,14.19
2018-10-21T12:54:57.867Z,14.29
2018-10-21T12:55:57.783Z,14.27
2018-10-21T12:56:57.787Z,14.28
2018-10-21T12:57:57.793Z,14.32
2018-10-21T12:58:57.789Z,14.47
2018-10-21T12:59:57.786Z,14.47
2018-10-21T13:00:57.792Z,14.52
2018-10-21T13:01:57.792Z,14.57
2018-10-21T13:02:57.792Z,14.67
2018-10-21T13:03:57.847Z,14.74
2018-10-21T13:04:57.792Z,14.93
2018-10-21T13:05:57.813Z,14.94
2018-10-21T13:06:57.848Z,14.88
2018-10-21T13:07:57.796Z,15.03
2018-10-21T13:08:57.795Z,15.05
2018-10-21T13:09:57.827Z,15.02
2018-10-21T13:10:57.799Z,14.99
2018-10-21T13:11:57.802Z,15.12
2018-10-21T13:12:57.865Z,15.24
2018-10-21T13:13:57.803Z,15.38
2018-10-21T13:14:57.806Z,15.26
2018-10-21T13:15:57.815Z,15.27
2018-10-21T13:16:57.805Z,15.38
2018-10-21T13:17:57.805Z,15.31
2018-10-21T13:18:57.850Z,15.41
2018-10-21T13:19:57.816Z,15.52
2018-10-21T13:20:57.823Z,15.54
2018-10-21T13:21:57.870Z,15.51
2018-10-21T13:22:57.810Z,15.39
2018-10-21T13:23:57.811Z,15.42
2018-10-21T13:24:57.861Z,15.42
2018-10-21T13:25:57.825Z,15.54
2018-10-21T13:26:57.816Z,15.56
2018-10-21T13:27:57.832Z,15.60
2018-10-21T13:28:57.919Z,15.75
2018-10-21T13:29:57.817Z,15.75
2018-10-21T13:30:57.890Z,15.89
2018-10-21T13:31:57.826Z,15.86
2018-10-21T13:32:57.824Z,15.82
2018-10-21T13:33:57.839Z,15.70
2018-10-21T13:34:57.835Z,15.78
2018-10-21T13:35:57.858Z,15.82
2018-10-21T13:36:57.866Z,15.79
2018-10-21T13:37:57.830Z,15.79
2018-10-21T13:38:57.832Z,15.86
2018-10-21T13:39:57.870Z,15.88
2018-10-21T13:40:57.834Z,15.94
2018-10-21T13:41:57.858Z,15.99
2018-10-21T13:42:58.080Z,15.94
2018-10-21T13:43:58.040Z,15.93
2018-10-21T13:44:57.843Z,15.97
2018-10-21T13:45:57.961Z,15.85
2018-10-21T13:46:57.863Z,15.85
2018-10-21T13:47:57.848Z,15.79
2018-10-21T13:48:57.944Z,15.74
2018-10-21T13:49:57.850Z,15.75
2018-10-21T13:50:57.852Z,15.75
2018-10-21T13:51:58.008Z,15.70
2018-10-21T13:52:57.926Z,15.78
2018-10-21T13:53:57.856Z,15.68
2018-10-21T13:54:57.880Z,15.70
2018-10-21T13:55:57.873Z,15.67
2018-10-21T13:56:57.864Z,15.70
2018-10-21T13:57:57.893Z,15.70
2018-10-21T13:58:57.905Z,15.78
2018-10-21T13:59:57.872Z,15.68
2018-10-21T14:00:57.932Z,15.82
2018-10-21T14:01:57.869Z,15.82
2018-10-21T14:02:57.876Z,15.74
2018-10-21T14:03:57.939Z,15.70
2018-10-21T14:04:57.879Z,15.66
2018-10-21T14:05:57.876Z,15.70
2018-10-21T14:06:57.930Z,15.76
2018-10-21T14:07:57.957Z,15.68
2018-10-21T14:08:57.884Z,15.88
2018-10-21T14:09:57.971Z,15.93
2018-10-21T14:10:57.886Z,15.99
2018-10-21T14:11:57.910Z,15.85
2018-10-21T14:12:57.896Z,15.78
2018-10-21T14:13:57.890Z,15.67
2018-10-21T14:14:57.916Z,15.74
2018-10-21T14:15:57.967Z,15.76
2018-10-21T14:16:57.922Z,15.79
2018-10-21T14:17:57.900Z,15.79
2018-10-21T14:18:57.904Z,15.72
2018-10-21T14:19:57.900Z,15.74
2018-10-21T14:20:57.900Z,15.52
2018-10-21T14:21:57.934Z,15.52
2018-10-21T14:22:57.908Z,15.52
2018-10-21T14:23:57.931Z,15.48
2018-10-21T14:24:58.022Z,15.57
2018-10-21T14:25:57.911Z,15.49
2018-10-21T14:26:57.911Z,15.54
2018-10-21T14:27:57.937Z,15.59
2018-10-21T14:28:57.916Z,15.66
2018-10-21T14:29:57.980Z,15.56
2018-10-21T14:30:57.986Z,15.64
2018-10-21T14:31:57.921Z,15.74
2018-10-21T14:32:57.955Z,15.70
2018-10-21T14:33:57.927Z,15.63
2018-10-21T14:34:57.923Z,15.54
2018-10-21T14:35:58.010Z,15.48
2018-10-21T14:36:57.927Z,15.42
2018-10-21T14:37:58.022Z,15.33
2018-10-21T14:38:57.943Z,15.31
2018-10-21T14:39:57.938Z,15.17
2018-10-21T14:40:57.934Z,15.12
2018-10-21T14:41:57.984Z,15.19
2018-10-21T14:42:57.938Z,15.23
2018-10-21T14:43:57.941Z,15.08
2018-10-21T14:44:57.947Z,15.06
2018-10-21T14:45:58.086Z,15.13
2018-10-21T14:46:57.944Z,15.03
2018-10-21T14:47:57.961Z,14.99
2018-10-21T14:48:57.970Z,14.80
2018-10-21T14:49:57.942Z,14.71
2018-10-21T14:50:57.974Z,14.67
2018-10-21T14:51:57.949Z,14.60
2018-10-21T14:52:57.962Z,14.61
2018-10-21T14:53:57.990Z,14.64
2018-10-21T14:54:57.994Z,14.67
2018-10-21T14:55:57.956Z,14.65
2018-10-21T14:56:58.032Z,14.57
2018-10-21T14:57:57.956Z,14.56
2018-10-21T14:58:57.955Z,14.53
2018-10-21T14:59:57.970Z,14.53
2018-10-21T15:00:57.960Z,14.52
2018-10-21T15:01:57.991Z,14.56
2018-10-21T15:02:57.984Z,14.54
2018-10-21T15:03:57.983Z,14.46
2018-10-21T15:04:57.962Z,14.39
2018-10-21T15:05:57.995Z,14.37
2018-10-21T15:06:57.963Z,14.46
2018-10-21T15:07:57.972Z,14.44
2018-10-21T15:08:57.968Z,14.39
2018-10-21T15:09:57.982Z,14.47
2018-10-21T15:10:57.968Z,14.38
2018-10-21T15:11:58.023Z,14.37
2018-10-21T15:12:57.968Z,14.21
2018-10-21T15:13:58.012Z,14.17
2018-10-21T15:14:57.975Z,14.12
2018-10-21T15:15:58.033Z,14.20
2018-10-21T15:16:57.971Z,14.16
2018-10-21T15:17:58.004Z,14.32
2018-10-21T15:18:57.974Z,14.32
2018-10-21T15:19:58.034Z,14.34
2018-10-21T15:20:57.974Z,14.35
2018-10-21T15:21:58.044Z,14.35
2018-10-21T15:22:58.052Z,14.32
2018-10-21T15:23:57.974Z,14.24
2018-10-21T15:24:57.979Z,14.25
2018-10-21T15:25:58.020Z,14.31
2018-10-21T15:26:58.010Z,14.21
2018-10-21T15:27:58.043Z,14.10
2018-10-21T15:28:57.990Z,13.98
2018-10-21T15:29:57.982Z,13.83
2018-10-21T15:30:57.975Z,13.63
2018-10-21T15:31:58.031Z,13.49
2018-10-21T15:32:57.979Z,13.46
2018-10-21T15:33:58.011Z,13.27
2018-10-21T15:34:57.979Z,13.15
2018-10-21T15:35:58.048Z,12.99
2018-10-21T15:36:57.983Z,12.89
2018-10-21T15:37:57.987Z,12.77
2018-10-21T15:38:57.990Z,12.63
2018-10-21T15:39:58.001Z,12.39
2018-10-21T15:40:57.982Z,12.31
2018-10-21T15:41:57.983Z,12.29
2018-10-21T15:42:57.985Z,12.21
2018-10-21T15:43:57.986Z,12.15
2018-10-21T15:44:57.985Z,12.04
2018-10-21T15:45:58.017Z,12.02
2018-10-21T15:46:57.988Z,11.86
2018-10-21T15:47:57.979Z,12.04
2018-10-21T15:48:58.055Z,11.90
2018-10-21T15:49:57.989Z,11.78
2018-10-21T15:50:57.993Z,11.70
2018-10-21T15:51:57.996Z,11.65
2018-10-21T15:52:57.975Z,11.64
2018-10-21T15:53:57.980Z,11.46
2018-10-21T15:54:57.978Z,11.39
2018-10-21T15:55:58.027Z,11.31
2018-10-21T15:56:57.973Z,11.20
2018-10-21T15:57:57.975Z,11.31
2018-10-21T15:58:57.973Z,11.19
2018-10-21T15:59:57.975Z,11.19
2018-10-21T16:00:57.972Z,11.01
2018-10-21T16:01:57.996Z,10.99
2018-10-21T16:02:57.978Z,10.92
2018-10-21T16:03:57.996Z,10.70
2018-10-21T16:04:57.970Z,10.74
2018-10-21T16:05:57.962Z,10.73
2018-10-21T16:06:57.959Z,10.66
2018-10-21T16:07:58.013Z,10.68
2018-10-21T16:08:57.975Z,10.58
2018-10-21T16:09:58.001Z,10.56
2018-10-21T16:10:57.955Z,10.51
2018-10-21T16:11:57.956Z,10.51
2018-10-21T16:12:57.953Z,10.43
2018-10-21T16:13:57.990Z,10.40
2018-10-21T16:14:57.950Z,10.34
2018-10-21T16:15:57.956Z,10.36
2018-10-21T16:16:57.950Z,10.30
2018-10-21T16:17:57.947Z,10.30
2018-10-21T16:18:57.948Z,10.26
2018-10-21T16:19:58.000Z,10.24
2018-10-21T16:20:57.941Z,10.17
2018-10-21T16:21:57.960Z,10.12
2018-10-21T16:22:57.937Z,10.07
2018-10-21T16:23:57.937Z,10.06
2018-10-21T16:25:05.168Z,9.93
2018-10-21T16:26:51.405Z,9.97
2018-10-21T16:27:51.383Z,9.88
2018-10-21T16:29:45.247Z,9.83
2018-10-21T16:30:46.786Z,9.73
2018-10-21T16:32:38.252Z,9.76
2018-10-21T16:33:38.123Z,9.71
2018-10-21T16:35:31.048Z,9.64
2018-10-21T16:36:30.951Z,9.60
2018-10-21T16:38:23.904Z,9.57
2018-10-21T16:39:23.800Z,9.45
2018-10-21T16:41:16.698Z,9.48
2018-10-21T16:42:16.698Z,9.46
2018-10-21T16:43:16.699Z,9.42
2018-10-21T16:44:16.837Z,9.42
2018-10-21T16:45:16.759Z,9.34
2018-10-21T16:46:16.668Z,9.35
2018-10-21T16:47:16.662Z,9.24
2018-10-21T16:48:16.703Z,9.25
2018-10-21T16:49:16.656Z,9.21
2018-10-21T16:50:16.662Z,9.24
2018-10-21T16:51:16.656Z,9.24
2018-10-21T16:52:23.980Z,9.20
2018-10-21T16:54:10.145Z,9.10
2018-10-21T16:55:09.792Z,9.12
2018-10-21T16:57:03.161Z,9.06
2018-10-21T16:58:03.133Z,8.99
2018-10-21T16:59:56.125Z,9.05
2018-10-21T17:00:56.190Z,8.96
2018-10-21T17:02:48.857Z,8.96
2018-10-21T17:03:48.873Z,8.93
2018-10-21T17:04:48.893Z,8.99
2018-10-21T17:05:49.024Z,8.99
2018-10-21T17:06:48.884Z,8.93
2018-10-21T17:07:48.823Z,8.93
2018-10-21T17:08:48.816Z,8.97
2018-10-21T17:09:49.070Z,8.83
2018-10-21T17:10:48.940Z,8.81
2018-10-21T17:11:48.811Z,8.86
2018-10-21T17:12:48.809Z,8.78
2018-10-21T17:13:48.801Z,8.71
2018-10-21T17:14:48.960Z,8.75
2018-10-21T17:15:48.796Z,8.68
2018-10-21T17:16:48.802Z,8.76
2018-10-21T17:17:48.803Z,8.76
2018-10-21T17:18:48.790Z,8.58
2018-10-21T17:19:48.796Z,8.71
2018-10-21T17:20:48.787Z,8.63
2018-10-21T17:21:48.782Z,8.71
2018-10-21T17:22:48.780Z,8.62
2018-10-21T17:23:48.772Z,8.58
2018-10-21T17:24:48.837Z,8.55
2018-10-21T17:25:48.774Z,8.57
2018-10-21T17:26:48.762Z,8.54
2018-10-21T17:27:48.781Z,8.40
2018-10-21T17:28:48.755Z,8.47
2018-10-21T17:29:48.759Z,8.42
2018-10-21T17:30:48.994Z,8.47
2018-10-21T17:31:48.818Z,8.37
2018-10-21T17:32:48.770Z,8.33
2018-10-21T17:33:48.739Z,8.29
2018-10-21T17:34:48.745Z,8.32
2018-10-21T17:35:48.734Z,8.22
2018-10-21T17:36:48.727Z,8.12
2018-10-21T17:37:48.731Z,8.02
2018-10-21T17:38:48.726Z,7.96
2018-10-21T17:39:48.720Z,7.94
2018-10-21T17:40:48.716Z,7.96
2018-10-21T17:41:48.713Z,7.87
2018-10-21T17:42:48.709Z,7.93
2018-10-21T17:43:48.705Z,7.85
2018-10-21T17:44:48.702Z,7.85
2018-10-21T17:45:48.697Z,7.89
2018-10-21T17:46:48.695Z,7.89
2018-10-21T17:47:48.693Z,7.81
2018-10-21T17:48:48.687Z,7.81
2018-10-21T17:49:48.703Z,7.90
2018-10-21T17:50:48.679Z,7.84
2018-10-21T17:51:48.678Z,7.90
2018-10-21T17:52:48.687Z,7.82
2018-10-21T17:53:48.716Z,7.79
2018-10-21T17:54:48.677Z,7.78
2018-10-21T17:55:55.996Z,7.71
2018-10-21T17:57:41.821Z,7.71
2018-10-21T17:58:41.787Z,7.62
2018-10-21T18:00:36.233Z,7.45
2018-10-21T18:01:34.623Z,7.45
2018-10-21T18:02:34.617Z,7.42
2018-10-21T18:03:34.602Z,7.41
2018-10-21T18:04:34.611Z,7.44
2018-10-21T18:05:34.604Z,7.37
2018-10-21T18:06:34.627Z,7.41
2018-10-21T18:07:34.634Z,7.35
2018-10-21T18:08:34.592Z,7.38
2018-10-21T18:09:34.731Z,7.35
2018-10-21T18:10:34.571Z,7.37
2018-10-21T18:11:34.565Z,7.24
2018-10-21T18:12:34.561Z,7.31
2018-10-21T18:13:34.556Z,7.29
2018-10-21T18:14:34.553Z,7.37
2018-10-21T18:15:34.548Z,7.38
2018-10-21T18:16:34.550Z,7.26
2018-10-21T18:17:34.539Z,7.35
2018-10-21T18:18:34.533Z,7.37
2018-10-21T18:19:34.531Z,7.35
2018-10-21T18:20:34.616Z,7.26
2018-10-21T18:21:34.524Z,7.31
2018-10-21T18:22:34.519Z,7.32
2018-10-21T18:23:34.513Z,7.32
2018-10-21T18:24:34.513Z,7.29
2018-10-21T18:25:34.508Z,7.29
2018-10-21T18:26:34.502Z,7.19
2018-10-21T18:27:34.496Z,7.15
2018-10-21T18:28:34.491Z,7.16
2018-10-21T18:29:34.490Z,7.04
2018-10-21T18:30:34.513Z,6.97
2018-10-21T18:31:34.480Z,6.91
2018-10-21T18:32:34.476Z,6.79
2018-10-21T18:33:34.472Z,6.91
2018-10-21T18:34:34.474Z,6.81
2018-10-21T18:35:41.790Z,6.80
2018-10-21T18:37:27.385Z,6.72
2018-10-21T18:38:27.447Z,6.69
2018-10-21T18:40:20.447Z,6.76
2018-10-21T18:41:20.249Z,6.72
2018-10-21T18:43:13.226Z,6.84
2018-10-21T18:44:13.094Z,6.80
2018-10-21T18:46:05.981Z,6.84
2018-10-21T18:47:05.988Z,6.80
2018-10-21T18:48:59.504Z,6.77
2018-10-21T18:49:59.444Z,6.84
2018-10-21T18:51:52.291Z,6.84
2018-10-21T18:52:52.283Z,6.76
2018-10-21T18:54:45.153Z,6.69
2018-10-21T18:55:45.129Z,6.73
2018-10-21T18:57:37.975Z,6.69
2018-10-21T18:58:38.002Z,6.79
2018-10-21T19:00:30.859Z,6.73
2018-10-21T19:01:30.829Z,6.79
2018-10-21T19:03:23.777Z,6.81
2018-10-21T19:04:23.687Z,6.73
2018-10-21T19:06:16.571Z,6.76
2018-10-21T19:07:16.673Z,6.76
2018-10-21T19:09:09.442Z,6.81
2018-10-21T19:10:09.551Z,6.76
2018-10-21T19:12:02.318Z,6.77
2018-10-21T19:13:02.345Z,6.84
2018-10-21T19:14:55.773Z,6.81
2018-10-21T19:15:55.781Z,6.76
2018-10-21T19:17:49.176Z,6.77
2018-10-21T19:18:49.193Z,6.76
2018-10-21T19:20:42.032Z,6.69
2018-10-21T19:21:42.002Z,6.76
2018-10-21T19:23:35.114Z,6.66
2018-10-21T19:24:35.076Z,6.62
2018-10-21T19:25:35.088Z,6.58
2018-10-21T19:26:35.066Z,6.54
2018-10-21T19:27:35.059Z,6.54
2018-10-21T19:28:35.135Z,6.48
2018-10-21T19:29:35.049Z,6.50
2018-10-21T19:30:35.033Z,6.29
2018-10-21T19:31:35.020Z,6.38
2018-10-21T19:32:35.014Z,6.32
2018-10-21T19:33:35.008Z,6.21
2018-10-21T19:34:35.018Z,6.30
2018-10-21T19:35:35.000Z,6.36
2018-10-21T19:36:35.000Z,6.32
2018-10-21T19:37:34.993Z,6.32
2018-10-21T19:38:34.987Z,6.32
2018-10-21T19:39:34.981Z,6.35
2018-10-21T19:40:34.975Z,6.19
2018-10-21T19:41:34.973Z,6.16
2018-10-21T19:42:34.967Z,6.13
2018-10-21T19:43:35.071Z,6.11
2018-10-21T19:44:34.955Z,6.18
2018-10-21T19:45:34.956Z,6.14
2018-10-21T19:46:34.947Z,6.07
2018-10-21T19:47:34.953Z,6.07
2018-10-21T19:48:34.970Z,6.13
2018-10-21T19:49:34.932Z,6.11
2018-10-21T19:50:34.927Z,6.11
2018-10-21T19:51:34.931Z,6.09
2018-10-21T19:52:34.916Z,6.13
2018-10-21T19:53:34.913Z,6.18
2018-10-21T19:54:35.042Z,6.10
2018-10-21T19:55:34.905Z,6.16
2018-10-21T19:56:34.899Z,6.16
2018-10-21T19:57:34.897Z,6.16
2018-10-21T19:58:34.906Z,6.21
2018-10-21T19:59:34.885Z,6.13
2018-10-21T20:00:34.876Z,6.16
2018-10-21T20:01:34.874Z,6.07
2018-10-21T20:02:34.871Z,6.13
2018-10-21T20:03:34.906Z,6.11
2018-10-21T20:04:34.857Z,6.01
2018-10-21T20:05:34.860Z,6.07
2018-10-21T20:06:34.853Z,6.01
2018-10-21T20:07:34.841Z,5.98
2018-10-21T20:08:34.841Z,6.00
2018-10-21T20:09:34.837Z,5.91
2018-10-21T20:10:34.827Z,5.92
2018-10-21T20:11:34.833Z,5.82
2018-10-21T20:12:34.821Z,5.88
2018-10-21T20:13:34.951Z,5.83
2018-10-21T20:14:34.808Z,5.77
2018-10-21T20:15:34.838Z,5.83
2018-10-21T20:16:34.829Z,5.75
2018-10-21T20:17:34.799Z,5.71